createdAt,value
2018-09-08T00:00:48.415Z,0.00
2018-09-08T00:01:48.390Z,0.00
2018-09-08T00:02:48.386Z,0.00
2018-09-08T00:03:48.374Z,0.00
2018-09-08T00:04:48.359Z,0.00
2018-09-08T00:05:48.376Z,0.00
2018-09-08T00:06:48.340Z,0.00
2018-09-08T00:07:48.346Z,0.00
2018-09-08T00:08:48.324Z,0.00
2018-09-08T00:09:48.306Z,0.00
2018-09-08T00:10:48.329Z,0.00
2018-09-08T00:11:48.293Z,0.00
2018-09-08T00:12:48.285Z,0.00
2018-09-08T00:13:48.266Z,0.00
2018-09-08T00:14:48.251Z,0.00
2018-09-08T00:15:48.243Z,0.00
2018-09-08T00:16:48.248Z,0.00
2018-09-08T00:17:48.257Z,0.00
2018-09-08T00:18:48.217Z,0.00
2018-09-08T00:19:48.205Z,0.00
2018-09-08T00:20:48.187Z,0.00
2018-09-08T00:21:48.190Z,0.00
2018-09-08T00:22:48.214Z,0.00
2018-09-08T00:23:48.158Z,0.00
2018-09-08T00:24:48.149Z,0.00
2018-09-08T00:25:48.182Z,0.00
2018-09-08T00:26:48.138Z,0.00
2018-09-08T00:27:48.113Z,0.00
2018-09-08T00:28:48.102Z,0.00
2018-09-08T00:29:48.106Z,0.00
2018-09-08T00:30:48.081Z,0.00
2018-09-08T00:31:48.341Z,0.00
2018-09-08T00:32:48.063Z,0.00
2018-09-08T00:33:48.067Z,0.00
2018-09-08T00:34:48.043Z,0.00
2018-09-08T00:35:48.036Z,0.00
2018-09-08T00:36:48.032Z,0.00
2018-09-08T00:37:48.013Z,0.00
2018-09-08T00:38:48.006Z,0.00
2018-09-08T00:39:47.986Z,0.00
2018-09-08T00:40:47.975Z,0.00
2018-09-08T00:41:47.975Z,0.00
2018-09-08T00:42:47.951Z,0.00
2018-09-08T00:43:47.946Z,0.00
2018-09-08T00:44:47.931Z,0.00
2018-09-08T00:45:48.012Z,0.00
2018-09-08T00:46:47.924Z,0.00
2018-09-08T00:47:47.901Z,0.00
2018-09-08T00:48:47.914Z,0.00
2018-09-08T00:49:47.878Z,0.00
2018-09-08T00:50:47.882Z,0.00
2018-09-08T00:51:47.874Z,0.00
2018-09-08T00:52:47.863Z,0.00
2018-09-08T00:53:47.846Z,0.00
2018-09-08T00:54:47.826Z,0.00
2018-09-08T00:55:47.814Z,0.00
2018-09-08T00:56:47.833Z,0.00
2018-09-08T00:57:47.803Z,0.00
2018-09-08T00:58:47.789Z,0.00
2018-09-08T00:59:47.784Z,0.00
2018-09-08T01:00:47.761Z,0.00
2018-09-08T01:01:47.760Z,0.00
2018-09-08T01:02:47.767Z,0.00
2018-09-08T01:03:47.771Z,0.00
2018-09-08T01:04:47.734Z,0.00
2018-09-08T01:05:47.718Z,0.00
2018-09-08T01:06:47.696Z,0.00
2018-09-08T01:07:47.697Z,0.00
2018-09-08T01:08:47.676Z,0.00
2018-09-08T01:09:47.671Z,0.00
2018-09-08T01:10:47.657Z,0.00
2018-09-08T01:11:47.649Z,0.00
2018-09-08T01:12:47.645Z,0.00
2018-09-08T01:13:47.625Z,0.00
2018-09-08T01:14:47.620Z,0.00
2018-09-08T01:15:47.619Z,0.00
2018-09-08T01:16:47.595Z,0.00
2018-09-08T01:17:47.591Z,0.00
2018-09-08T01:18:47.571Z,0.00
2018-09-08T01:19:47.559Z,0.00
2018-09-08T01:20:47.552Z,0.00
2018-09-08T01:21:47.548Z,0.00
2018-09-08T01:22:47.553Z,0.00
2018-09-08T01:23:47.515Z,0.00
2018-09-08T01:24:47.503Z,0.00
2018-09-08T01:25:47.514Z,0.00
2018-09-08T01:26:47.486Z,0.00
2018-09-08T01:27:47.488Z,0.00
2018-09-08T01:28:47.462Z,0.00
2018-09-08T01:29:47.451Z,0.00
2018-09-08T01:30:47.441Z,0.00
2018-09-08T01:31:47.429Z,0.00
2018-09-08T01:32:47.431Z,0.00
2018-09-08T01:33:47.412Z,0.00
2018-09-08T01:34:47.398Z,0.00
2018-09-08T01:35:47.389Z,0.00
2018-09-08T01:36:47.376Z,0.00
2018-09-08T01:37:47.378Z,0.00
2018-09-08T01:38:47.358Z,0.00
2018-09-08T01:39:47.362Z,0.00
2018-09-08T01:40:47.337Z,0.00
2018-09-08T01:41:47.322Z,0.00
2018-09-08T01:42:47.326Z,0.00
2018-09-08T01:43:47.301Z,0.00
2018-09-08T01:44:47.292Z,0.00
2018-09-08T01:45:47.284Z,0.00
2018-09-08T01:46:47.271Z,0.00
2018-09-08T01:47:47.272Z,0.00
2018-09-08T01:48:47.261Z,0.00
2018-09-08T01:49:47.237Z,0.00
2018-09-08T01:50:47.231Z,0.00
2018-09-08T01:51:47.232Z,0.00
2018-09-08T01:52:47.219Z,0.00
2018-09-08T01:53:47.197Z,0.00
2018-09-08T01:54:47.187Z,0.00
2018-09-08T01:55:47.175Z,0.00
2018-09-08T01:56:47.164Z,0.00
2018-09-08T01:57:47.185Z,0.00
2018-09-08T01:58:47.143Z,0.00
2018-09-08T01:59:47.132Z,0.00
2018-09-08T02:00:47.122Z,0.00
2018-09-08T02:01:47.110Z,0.00
2018-09-08T02:02:47.100Z,0.00
2018-09-08T02:03:47.106Z,0.00
2018-09-08T02:04:47.089Z,0.00
2018-09-08T02:05:47.068Z,0.00
2018-09-08T02:06:47.060Z,0.00
2018-09-08T02:07:47.047Z,0.00
2018-09-08T02:08:47.047Z,0.00
2018-09-08T02:09:47.031Z,0.00
2018-09-08T02:10:47.037Z,0.00
2018-09-08T02:11:47.019Z,0.00
2018-09-08T02:12:46.994Z,0.00
2018-09-08T02:13:46.993Z,0.00
2018-09-08T02:14:46.978Z,0.00
2018-09-08T02:15:46.965Z,0.00
2018-09-08T02:16:46.961Z,0.00
2018-09-08T02:17:46.944Z,0.00
2018-09-08T02:18:46.942Z,0.00
2018-09-08T02:19:46.920Z,0.00
2018-09-08T02:20:46.908Z,0.00
2018-09-08T02:21:46.918Z,0.00
2018-09-08T02:22:46.896Z,0.00
2018-09-08T02:23:46.894Z,0.00
2018-09-08T02:24:46.866Z,0.00
2018-09-08T02:25:46.855Z,0.00
2018-09-08T02:26:46.848Z,0.00
2018-09-08T02:27:46.835Z,0.00
2018-09-08T02:28:46.841Z,0.00
2018-09-08T02:29:46.813Z,0.00
2018-09-08T02:30:46.807Z,0.00
2018-09-08T02:31:46.795Z,0.00
2018-09-08T02:32:46.788Z,0.00
2018-09-08T02:33:46.791Z,0.00
2018-09-08T02:34:46.767Z,0.00
2018-09-08T02:35:46.749Z,0.00
2018-09-08T02:36:46.745Z,0.00
2018-09-08T02:37:46.731Z,0.00
2018-09-08T02:38:46.730Z,0.00
2018-09-08T02:39:46.708Z,0.00
2018-09-08T02:40:46.695Z,0.00
2018-09-08T02:41:46.684Z,0.00
2018-09-08T02:42:46.682Z,0.00
2018-09-08T02:43:46.675Z,0.00
2018-09-08T02:44:46.672Z,0.00
2018-09-08T02:45:46.645Z,0.00
2018-09-08T02:46:46.632Z,0.00
2018-09-08T02:47:46.623Z,0.00
2018-09-08T02:48:46.624Z,0.00
2018-09-08T02:49:46.619Z,0.00
2018-09-08T02:50:46.592Z,0.00
2018-09-08T02:51:46.578Z,0.00
2018-09-08T02:52:46.571Z,0.00
2018-09-08T02:53:46.569Z,0.00
2018-09-08T02:54:46.551Z,0.00
2018-09-08T02:55:46.540Z,0.00
2018-09-08T02:56:46.524Z,0.00
2018-09-08T02:57:46.524Z,0.00
2018-09-08T02:58:46.515Z,0.00
2018-09-08T02:59:46.493Z,0.00
2018-09-08T03:00:46.484Z,0.00
2018-09-08T03:01:46.473Z,0.00
2018-09-08T03:02:46.468Z,0.00
2018-09-08T03:03:46.464Z,0.00
2018-09-08T03:04:46.440Z,0.00
2018-09-08T03:05:46.441Z,0.00
2018-09-08T03:06:46.419Z,0.00
2018-09-08T03:07:46.426Z,0.00
2018-09-08T03:08:46.421Z,0.00
2018-09-08T03:09:46.387Z,0.00
2018-09-08T03:10:46.385Z,0.00
2018-09-08T03:11:46.369Z,0.00
2018-09-08T03:12:46.356Z,0.00
2018-09-08T03:13:46.369Z,0.00
2018-09-08T03:14:46.336Z,0.00
2018-09-08T03:15:46.325Z,0.00
2018-09-08T03:16:46.323Z,0.00
2018-09-08T03:17:46.311Z,0.00
2018-09-08T03:18:46.304Z,0.00
2018-09-08T03:19:46.305Z,0.00
2018-09-08T03:20:46.274Z,0.00
2018-09-08T03:21:46.269Z,0.00
2018-09-08T03:22:46.255Z,0.00
2018-09-08T03:23:46.253Z,0.00
2018-09-08T03:24:46.234Z,0.00
2018-09-08T03:25:46.218Z,0.00
2018-09-08T03:26:46.207Z,0.00
2018-09-08T03:27:46.222Z,0.00
2018-09-08T03:28:46.217Z,0.00
2018-09-08T03:29:46.176Z,0.00
2018-09-08T03:30:46.258Z,0.00
2018-09-08T03:31:46.153Z,0.00
2018-09-08T03:32:46.143Z,0.00
2018-09-08T03:33:46.133Z,0.00
2018-09-08T03:34:46.137Z,0.00
2018-09-08T03:35:46.111Z,0.00
2018-09-08T03:36:46.102Z,0.00
2018-09-08T03:37:46.097Z,0.00
2018-09-08T03:38:46.078Z,0.00
2018-09-08T03:39:46.083Z,0.00
2018-09-08T03:40:46.079Z,0.00
2018-09-08T03:41:46.047Z,0.00
2018-09-08T03:42:46.038Z,0.00
2018-09-08T03:43:46.028Z,0.00
2018-09-08T03:44:46.044Z,0.00
2018-09-08T03:45:46.003Z,0.00
2018-09-08T03:46:45.992Z,0.00
2018-09-08T03:47:45.981Z,0.00
2018-09-08T03:48:45.973Z,0.00
2018-09-08T03:49:45.972Z,0.00
2018-09-08T03:50:45.956Z,0.00
2018-09-08T03:51:45.938Z,0.00
2018-09-08T03:52:45.935Z,0.00
2018-09-08T03:53:45.916Z,0.00
2018-09-08T03:54:45.918Z,0.00
2018-09-08T03:55:45.904Z,0.00
2018-09-08T03:56:45.883Z,0.00
2018-09-08T03:57:45.878Z,0.00
2018-09-08T03:58:45.883Z,0.00
2018-09-08T03:59:45.871Z,0.00
2018-09-08T04:00:45.842Z,0.00
2018-09-08T04:01:45.832Z,0.00
2018-09-08T04:02:45.824Z,0.00
2018-09-08T04:03:45.823Z,0.00
2018-09-08T04:04:45.816Z,0.00
2018-09-08T04:05:45.854Z,0.00
2018-09-08T04:06:45.790Z,0.00
2018-09-08T04:07:45.768Z,0.00
2018-09-08T04:08:45.756Z,0.00
2018-09-08T04:09:45.803Z,0.00
2018-09-08T04:10:45.744Z,0.00
2018-09-08T04:11:45.726Z,0.00
2018-09-08T04:12:45.715Z,0.00
2018-09-08T04:13:45.764Z,0.00
2018-09-08T04:14:45.722Z,0.00
2018-09-08T04:15:45.686Z,0.00
2018-09-08T04:16:45.707Z,0.00
2018-09-08T04:17:45.660Z,0.00
2018-09-08T04:18:45.687Z,0.00
2018-09-08T04:19:45.659Z,0.00
2018-09-08T04:20:45.628Z,0.00
2018-09-08T04:21:45.656Z,0.00
2018-09-08T04:22:45.608Z,0.00
2018-09-08T04:23:45.596Z,0.00
2018-09-08T04:24:45.598Z,0.00
2018-09-08T04:25:45.576Z,0.00
2018-09-08T04:26:45.604Z,0.00
2018-09-08T04:27:45.556Z,0.00
2018-09-08T04:28:45.544Z,0.00
2018-09-08T04:29:45.541Z,0.00
2018-09-08T04:30:45.519Z,0.00
2018-09-08T04:31:45.508Z,0.00
2018-09-08T04:32:45.500Z,0.00
2018-09-08T04:33:45.487Z,0.00
2018-09-08T04:34:45.490Z,0.00
2018-09-08T04:35:45.504Z,0.00
2018-09-08T04:36:45.476Z,0.00
2018-09-08T04:37:45.448Z,0.00
2018-09-08T04:38:45.433Z,4.00
2018-09-08T04:39:45.445Z,4.00
2018-09-08T04:40:45.415Z,0.00
2018-09-08T04:41:45.399Z,0.00
2018-09-08T04:42:45.388Z,0.00
2018-09-08T04:43:45.396Z,0.00
2018-09-08T04:44:45.379Z,4.00
2018-09-08T04:45:45.356Z,4.00
2018-09-08T04:46:45.354Z,4.00
2018-09-08T04:47:45.334Z,0.00
2018-09-08T04:48:45.326Z,4.00
2018-09-08T04:49:45.357Z,4.00
2018-09-08T04:50:45.322Z,4.00
2018-09-08T04:51:45.291Z,0.00
2018-09-08T04:52:45.280Z,4.00
2018-09-08T04:53:45.269Z,4.00
2018-09-08T04:54:45.283Z,8.00
2018-09-08T04:55:45.249Z,4.00
2018-09-08T04:56:45.268Z,8.00
2018-09-08T04:57:45.227Z,8.00
2018-09-08T04:58:45.215Z,4.00
2018-09-08T04:59:45.238Z,8.00
2018-09-08T05:00:45.208Z,4.00
2018-09-08T05:01:45.188Z,8.00
2018-09-08T05:02:45.174Z,12.00
2018-09-08T05:03:45.186Z,8.00
2018-09-08T05:04:45.151Z,12.00
2018-09-08T05:05:45.151Z,8.00
2018-09-08T05:06:45.134Z,12.00
2018-09-08T05:07:45.120Z,12.00
2018-09-08T05:08:45.107Z,12.00
2018-09-08T05:09:45.157Z,12.00
2018-09-08T05:10:45.098Z,16.00
2018-09-08T05:11:45.074Z,12.00
2018-09-08T05:12:45.073Z,16.00
2018-09-08T05:13:45.060Z,16.00
2018-09-08T05:14:45.045Z,16.00
2018-09-08T05:15:45.043Z,20.00
2018-09-08T05:16:45.052Z,16.00
2018-09-08T05:17:45.009Z,20.00
2018-09-08T05:18:45.000Z,20.00
2018-09-08T05:19:44.986Z,20.00
2018-09-08T05:20:44.989Z,20.00
2018-09-08T05:21:44.967Z,24.00
2018-09-08T05:22:44.969Z,24.00
2018-09-08T05:23:44.960Z,20.00
2018-09-08T05:24:44.939Z,24.00
2018-09-08T05:25:44.935Z,24.00
2018-09-08T05:26:44.914Z,28.00
2018-09-08T05:27:44.905Z,24.00
2018-09-08T05:28:44.913Z,28.00
2018-09-08T05:29:44.876Z,28.00
2018-09-08T05:30:44.878Z,28.00
2018-09-08T05:31:44.855Z,32.00
2018-09-08T05:32:44.902Z,28.00
2018-09-08T05:33:44.833Z,32.00
2018-09-08T05:34:44.823Z,32.00
2018-09-08T05:35:44.841Z,32.00
2018-09-08T05:36:44.800Z,32.00
2018-09-08T05:37:44.789Z,32.00
2018-09-08T05:38:44.796Z,36.00
2018-09-08T05:39:44.767Z,36.00
2018-09-08T05:40:44.787Z,36.00
2018-09-08T05:41:44.750Z,40.00
2018-09-08T05:42:44.739Z,36.00
2018-09-08T05:43:44.755Z,40.00
2018-09-08T05:44:44.714Z,40.00
2018-09-08T05:45:44.730Z,40.00
2018-09-08T05:46:44.716Z,44.00
2018-09-08T05:47:44.680Z,44.00
2018-09-08T05:48:44.689Z,44.00
2018-09-08T05:49:44.660Z,48.00
2018-09-08T05:50:44.664Z,48.00
2018-09-08T05:51:44.638Z,52.00
2018-09-08T05:52:44.649Z,56.00
2018-09-08T05:53:44.619Z,60.00
2018-09-08T05:54:44.605Z,72.00
2018-09-08T05:55:44.592Z,84.00
2018-09-08T05:56:44.594Z,56.00
2018-09-08T05:57:44.589Z,88.00
2018-09-08T05:58:44.578Z,124.00
2018-09-08T05:59:44.552Z,136.00
2018-09-08T06:00:44.547Z,144.00
2018-09-08T06:01:44.539Z,160.00
2018-09-08T06:02:44.514Z,176.00
2018-09-08T06:03:44.510Z,184.00
2018-09-08T06:04:44.496Z,196.00
2018-09-08T06:05:44.482Z,200.00
2018-09-08T06:06:44.481Z,208.00
2018-09-08T06:07:44.460Z,220.00
2018-09-08T06:08:44.470Z,232.00
2018-09-08T06:09:44.453Z,244.00
2018-09-08T06:10:44.427Z,240.00
2018-09-08T06:11:44.426Z,208.00
2018-09-08T06:12:44.405Z,192.00
2018-09-08T06:13:44.393Z,196.00
2018-09-08T06:14:44.387Z,160.00
2018-09-08T06:15:44.378Z,224.00
2018-09-08T06:16:44.398Z,228.00
2018-09-08T06:17:44.351Z,244.00
2018-09-08T06:18:44.383Z,208.00
2018-09-08T06:19:44.468Z,280.00
2018-09-08T06:20:44.319Z,296.00
2018-09-08T06:21:44.336Z,312.00
2018-09-08T06:22:44.338Z,332.00
2018-09-08T06:23:44.304Z,352.00
2018-09-08T06:24:44.273Z,364.00
2018-09-08T06:25:44.267Z,384.00
2018-09-08T06:26:44.260Z,396.00
2018-09-08T06:27:44.264Z,408.00
2018-09-08T06:28:44.237Z,424.00
2018-09-08T06:29:44.217Z,436.00
2018-09-08T06:30:44.211Z,452.00
2018-09-08T06:31:44.266Z,468.00
2018-09-08T06:32:44.188Z,472.00
2018-09-08T06:33:44.178Z,484.00
2018-09-08T06:34:44.161Z,492.00
2018-09-08T06:35:44.154Z,492.00
2018-09-08T06:36:44.163Z,500.00
2018-09-08T06:37:44.129Z,500.00
2018-09-08T06:38:44.133Z,500.00
2018-09-08T06:39:44.107Z,500.00
2018-09-08T06:40:44.096Z,500.00
2018-09-08T06:41:44.095Z,492.00
2018-09-08T06:42:44.085Z,496.00
2018-09-08T06:43:44.065Z,492.00
2018-09-08T06:44:44.091Z,484.00
2018-09-08T06:45:44.041Z,480.00
2018-09-08T06:46:44.045Z,480.00
2018-09-08T06:47:44.020Z,476.00
2018-09-08T06:48:44.013Z,472.00
2018-09-08T06:49:44.010Z,468.00
2018-09-08T06:50:43.989Z,468.00
2018-09-08T06:51:43.977Z,460.00
2018-09-08T06:52:43.979Z,460.00
2018-09-08T06:53:43.959Z,456.00
2018-09-08T06:54:43.964Z,456.00
2018-09-08T06:55:43.965Z,456.00
2018-09-08T06:56:43.955Z,452.00
2018-09-08T06:57:43.959Z,452.00
2018-09-08T06:58:43.920Z,452.00
2018-09-08T06:59:43.919Z,456.00
2018-09-08T07:00:43.881Z,456.00
2018-09-08T07:01:43.871Z,460.00
2018-09-08T07:02:43.872Z,468.00
2018-09-08T07:03:43.849Z,472.00
2018-09-08T07:04:43.842Z,476.00
2018-09-08T07:05:43.828Z,476.00
2018-09-08T07:06:43.819Z,484.00
2018-09-08T07:07:43.838Z,488.00
2018-09-08T07:08:43.817Z,492.00
2018-09-08T07:09:43.786Z,492.00
2018-09-08T07:10:43.775Z,492.00
2018-09-08T07:11:43.765Z,492.00
2018-09-08T07:12:43.784Z,496.00
2018-09-08T07:13:43.776Z,504.00
2018-09-08T07:14:43.796Z,504.00
2018-09-08T07:15:43.723Z,508.00
2018-09-08T07:16:43.718Z,516.00
2018-09-08T07:17:43.737Z,524.00
2018-09-08T07:18:43.714Z,532.00
2018-09-08T07:19:43.679Z,532.00
2018-09-08T07:20:43.725Z,536.00
2018-09-08T07:21:43.663Z,540.00
2018-09-08T07:22:43.660Z,544.00
2018-09-08T07:23:43.637Z,552.00
2018-09-08T07:24:43.709Z,564.00
2018-09-08T07:25:43.627Z,572.00
2018-09-08T07:26:43.604Z,576.00
2018-09-08T07:27:43.642Z,584.00
2018-09-08T07:28:43.584Z,592.00
2018-09-08T07:29:43.573Z,592.00
2018-09-08T07:30:43.563Z,596.00
2018-09-08T07:31:43.558Z,608.00
2018-09-08T07:32:43.553Z,620.00
2018-09-08T07:33:43.529Z,632.00
2018-09-08T07:34:43.519Z,632.00
2018-09-08T07:35:43.513Z,648.00
2018-09-08T07:36:43.499Z,652.00
2018-09-08T07:37:43.505Z,660.00
2018-09-08T07:38:43.477Z,664.00
2018-09-08T07:39:43.476Z,676.00
2018-09-08T07:40:43.467Z,680.00
2018-09-08T07:41:43.448Z,684.00
2018-09-08T07:42:43.449Z,696.00
2018-09-08T07:43:43.426Z,700.00
2018-09-08T07:44:43.413Z,712.00
2018-09-08T07:45:43.406Z,712.00
2018-09-08T07:46:43.396Z,724.00
2018-09-08T07:47:43.404Z,732.00
2018-09-08T07:48:43.373Z,732.00
2018-09-08T07:49:43.365Z,732.00
2018-09-08T07:50:43.367Z,740.00
2018-09-08T07:51:43.343Z,740.00
2018-09-08T07:52:43.346Z,736.00
2018-09-08T07:53:43.393Z,756.00
2018-09-08T07:54:43.309Z,756.00
2018-09-08T07:55:43.298Z,776.00
2018-09-08T07:56:43.293Z,784.00
2018-09-08T07:57:43.305Z,780.00
2018-09-08T07:58:43.300Z,780.00
2018-09-08T07:59:43.253Z,792.00
2018-09-08T08:00:43.295Z,784.00
2018-09-08T08:01:43.233Z,780.00
2018-09-08T08:02:43.223Z,796.00
2018-09-08T08:03:43.232Z,768.00
2018-09-08T08:04:43.208Z,788.00
2018-09-08T08:05:43.187Z,772.00
2018-09-08T08:06:43.241Z,768.00
2018-09-08T08:07:43.214Z,760.00
2018-09-08T08:08:43.167Z,760.00
2018-09-08T08:09:43.144Z,732.00
2018-09-08T08:10:43.149Z,740.00
2018-09-08T08:11:43.125Z,748.00
2018-09-08T08:12:43.117Z,752.00
2018-09-08T08:13:43.135Z,736.00
2018-09-08T08:14:43.092Z,728.00
2018-09-08T08:15:43.081Z,756.00
2018-09-08T08:16:43.069Z,728.00
2018-09-08T08:17:43.063Z,704.00
2018-09-08T08:18:43.059Z,700.00
2018-09-08T08:19:43.034Z,712.00
2018-09-08T08:20:43.041Z,748.00
2018-09-08T08:21:43.019Z,696.00
2018-09-08T08:22:43.001Z,708.00
2018-09-08T08:23:43.022Z,712.00
2018-09-08T08:24:42.979Z,692.00
2018-09-08T08:25:42.969Z,692.00
2018-09-08T08:26:42.972Z,680.00
2018-09-08T08:27:42.947Z,676.00
2018-09-08T08:28:42.947Z,680.00
2018-09-08T08:29:42.928Z,680.00
2018-09-08T08:30:42.914Z,688.00
2018-09-08T08:31:42.907Z,676.00
2018-09-08T08:32:42.892Z,656.00
2018-09-08T08:33:42.898Z,656.00
2018-09-08T08:34:42.878Z,644.00
2018-09-08T08:35:42.871Z,628.00
2018-09-08T08:36:42.859Z,612.00
2018-09-08T08:37:42.837Z,616.00
2018-09-08T08:38:42.846Z,600.00
2018-09-08T08:39:42.815Z,580.00
2018-09-08T08:40:42.805Z,544.00
2018-09-08T08:41:42.793Z,532.00
2018-09-08T08:42:42.783Z,464.00
2018-09-08T08:43:42.808Z,428.00
2018-09-08T08:44:42.762Z,512.00
2018-09-08T08:45:42.748Z,520.00
2018-09-08T08:46:42.737Z,500.00
2018-09-08T08:47:42.727Z,452.00
2018-09-08T08:48:42.737Z,464.00
2018-09-08T08:49:42.718Z,432.00
2018-09-08T08:50:42.700Z,424.00
2018-09-08T08:51:42.704Z,400.00
2018-09-08T08:52:42.673Z,388.00
2018-09-08T08:53:42.750Z,408.00
2018-09-08T08:54:42.660Z,352.00
2018-09-08T08:55:42.652Z,364.00
2018-09-08T08:56:42.626Z,368.00
2018-09-08T08:57:42.621Z,360.00
2018-09-08T08:58:42.630Z,324.00
2018-09-08T08:59:42.613Z,316.00
2018-09-08T09:00:42.581Z,312.00
2018-09-08T09:01:42.587Z,292.00
2018-09-08T09:02:42.563Z,264.00
2018-09-08T09:03:42.552Z,264.00
2018-09-08T09:04:42.569Z,260.00
2018-09-08T09:05:42.533Z,240.00
2018-09-08T09:06:42.517Z,224.00
2018-09-08T09:07:42.505Z,192.00
2018-09-08T09:08:42.747Z,184.00
2018-09-08T09:09:42.521Z,180.00
2018-09-08T09:10:42.472Z,168.00
2018-09-08T09:11:42.468Z,172.00
2018-09-08T09:12:42.462Z,168.00
2018-09-08T09:13:42.439Z,172.00
2018-09-08T09:14:42.443Z,168.00
2018-09-08T09:15:42.418Z,176.00
2018-09-08T09:16:42.408Z,180.00
2018-09-08T09:17:42.396Z,172.00
2018-09-08T09:18:42.951Z,168.00
2018-09-08T09:19:42.385Z,176.00
2018-09-08T09:20:42.366Z,168.00
2018-09-08T09:21:42.351Z,172.00
2018-09-08T09:22:42.363Z,168.00
2018-09-08T09:23:42.330Z,176.00
2018-09-08T09:24:43.152Z,172.00
2018-09-08T09:25:42.317Z,176.00
2018-09-08T09:26:42.300Z,172.00
2018-09-08T09:27:42.284Z,168.00
2018-09-08T09:28:42.276Z,168.00
2018-09-08T09:29:42.279Z,176.00
2018-09-08T09:30:42.251Z,176.00
2018-09-08T09:31:42.296Z,180.00
2018-09-08T09:32:42.231Z,180.00
2018-09-08T09:33:42.221Z,188.00
2018-09-08T09:34:42.232Z,184.00
2018-09-08T09:35:42.224Z,196.00
2018-09-08T09:36:42.186Z,180.00
2018-09-08T09:37:42.179Z,180.00
2018-09-08T09:38:42.169Z,196.00
2018-09-08T09:39:42.171Z,196.00
2018-09-08T09:40:42.145Z,200.00
2018-09-08T09:41:42.137Z,200.00
2018-09-08T09:42:42.118Z,188.00
2018-09-08T09:43:42.118Z,172.00
2018-09-08T09:44:42.125Z,172.00
2018-09-08T09:45:42.103Z,192.00
2018-09-08T09:46:42.073Z,204.00
2018-09-08T09:47:42.065Z,204.00
2018-09-08T09:48:42.050Z,208.00
2018-09-08T09:49:42.041Z,212.00
2018-09-08T09:50:42.039Z,216.00
2018-09-08T09:51:42.030Z,216.00
2018-09-08T09:52:42.012Z,248.00
2018-09-08T09:53:41.995Z,264.00
2018-09-08T09:54:41.985Z,272.00
2018-09-08T09:55:42.032Z,276.00
2018-09-08T09:56:41.964Z,288.00
2018-09-08T09:57:41.951Z,292.00
2018-09-08T09:58:41.941Z,280.00
2018-09-08T09:59:41.933Z,268.00
2018-09-08T10:00:41.930Z,272.00
2018-09-08T10:01:41.909Z,276.00
2018-09-08T10:02:41.907Z,292.00
2018-09-08T10:03:41.888Z,296.00
2018-09-08T10:04:41.875Z,280.00
2018-09-08T10:05:41.884Z,276.00
2018-09-08T10:06:41.856Z,216.00
2018-09-08T10:07:41.840Z,224.00
2018-09-08T10:08:41.844Z,228.00
2018-09-08T10:09:41.817Z,240.00
2018-09-08T10:10:41.818Z,260.00
2018-09-08T10:11:41.798Z,240.00
2018-09-08T10:12:41.785Z,236.00
2018-09-08T10:13:41.777Z,264.00
2018-09-08T10:14:41.769Z,256.00
2018-09-08T10:15:41.797Z,252.00
2018-09-08T10:16:41.740Z,288.00
2018-09-08T10:17:41.730Z,328.00
2018-09-08T10:18:41.721Z,332.00
2018-09-08T10:19:41.714Z,320.00
2018-09-08T10:20:41.710Z,336.00
2018-09-08T10:21:41.709Z,336.00
2018-09-08T10:22:41.681Z,332.00
2018-09-08T10:23:41.664Z,336.00
2018-09-08T10:24:41.654Z,328.00
2018-09-08T10:25:41.676Z,336.00
2018-09-08T10:26:41.628Z,332.00
2018-09-08T10:27:41.628Z,320.00
2018-09-08T10:28:41.605Z,292.00
2018-09-08T10:29:41.606Z,252.00
2018-09-08T10:30:41.619Z,192.00
2018-09-08T10:31:41.598Z,148.00
2018-09-08T10:32:41.563Z,104.00
2018-09-08T10:33:41.552Z,92.00
2018-09-08T10:34:41.584Z,92.00
2018-09-08T10:35:41.534Z,104.00
2018-09-08T10:36:41.536Z,84.00
2018-09-08T10:37:41.536Z,84.00
2018-09-08T10:38:41.494Z,88.00
2018-09-08T10:39:41.485Z,96.00
2018-09-08T10:40:41.475Z,104.00
2018-09-08T10:41:41.503Z,116.00
2018-09-08T10:42:41.448Z,260.00
2018-09-08T10:43:41.441Z,384.00
2018-09-08T10:44:41.435Z,392.00
2018-09-08T10:45:41.421Z,140.00
2018-09-08T10:46:41.425Z,148.00
2018-09-08T10:47:41.394Z,132.00
2018-09-08T10:48:41.384Z,124.00
2018-09-08T10:49:41.369Z,116.00
2018-09-08T10:50:41.377Z,112.00
2018-09-08T10:51:41.392Z,112.00
2018-09-08T10:52:41.339Z,112.00
2018-09-08T10:53:41.332Z,120.00
2018-09-08T10:54:41.336Z,108.00
2018-09-08T10:55:41.303Z,104.00
2018-09-08T10:56:41.444Z,100.00
2018-09-08T10:57:41.288Z,100.00
2018-09-08T10:58:41.277Z,88.00
2018-09-08T10:59:41.292Z,80.00
2018-09-08T11:00:41.247Z,68.00
2018-09-08T11:01:41.339Z,60.00
2018-09-08T11:02:41.527Z,60.00
2018-09-08T11:03:41.212Z,60.00
2018-09-08T11:04:41.212Z,72.00
2018-09-08T11:05:41.189Z,84.00
2018-09-08T11:06:41.180Z,88.00
2018-09-08T11:07:41.230Z,96.00
2018-09-08T11:08:41.157Z,92.00
2018-09-08T11:09:41.152Z,84.00
2018-09-08T11:10:41.136Z,84.00
2018-09-08T11:11:41.124Z,84.00
2018-09-08T11:12:41.123Z,80.00
2018-09-08T11:13:41.103Z,84.00
2018-09-08T11:14:41.090Z,92.00
2018-09-08T11:15:41.101Z,116.00
2018-09-08T11:16:41.069Z,104.00
2018-09-08T11:17:41.116Z,112.00
2018-09-08T11:18:41.077Z,116.00
2018-09-08T11:19:41.035Z,132.00
2018-09-08T11:20:41.116Z,128.00
2018-09-08T11:21:41.029Z,140.00
2018-09-08T11:22:41.012Z,156.00
2018-09-08T11:23:40.994Z,188.00
2018-09-08T11:24:40.991Z,236.00
2018-09-08T11:25:40.967Z,232.00
2018-09-08T11:26:40.967Z,212.00
2018-09-08T11:27:40.962Z,168.00
2018-09-08T11:28:40.934Z,140.00
2018-09-08T11:29:40.928Z,136.00
2018-09-08T11:30:40.973Z,176.00
2018-09-08T11:31:40.969Z,208.00
2018-09-08T11:32:40.917Z,252.00
2018-09-08T11:33:40.879Z,172.00
2018-09-08T11:34:40.865Z,128.00
2018-09-08T11:35:40.861Z,160.00
2018-09-08T11:36:40.845Z,356.00
2018-09-08T11:37:40.867Z,424.00
2018-09-08T11:38:40.820Z,428.00
2018-09-08T11:39:40.813Z,420.00
2018-09-08T11:40:40.799Z,160.00
2018-09-08T11:41:40.855Z,144.00
2018-09-08T11:42:40.778Z,144.00
2018-09-08T11:43:40.781Z,144.00
2018-09-08T11:44:40.851Z,140.00
2018-09-08T11:45:40.824Z,136.00
2018-09-08T11:46:40.732Z,132.00
2018-09-08T11:47:40.719Z,196.00
2018-09-08T11:48:40.722Z,144.00
2018-09-08T11:49:40.766Z,164.00
2018-09-08T11:50:40.715Z,180.00
2018-09-08T11:51:40.676Z,128.00
2018-09-08T11:52:40.665Z,132.00
2018-09-08T11:53:40.692Z,124.00
2018-09-08T11:54:40.646Z,132.00
2018-09-08T11:55:40.666Z,224.00
2018-09-08T11:56:40.623Z,116.00
2018-09-08T11:57:40.609Z,108.00
2018-09-08T11:58:40.625Z,108.00
2018-09-08T11:59:40.599Z,108.00
2018-09-08T12:00:40.579Z,124.00
2018-09-08T12:01:40.565Z,316.00
2018-09-08T12:02:40.558Z,356.00
2018-09-08T12:03:40.577Z,356.00
2018-09-08T12:04:40.531Z,380.00
2018-09-08T12:05:40.521Z,388.00
2018-09-08T12:06:40.508Z,388.00
2018-09-08T12:07:40.498Z,172.00
2018-09-08T12:08:40.517Z,184.00
2018-09-08T12:09:40.483Z,116.00
2018-09-08T12:10:40.478Z,100.00
2018-09-08T12:11:40.472Z,92.00
2018-09-08T12:12:40.449Z,100.00
2018-09-08T12:13:40.457Z,104.00
2018-09-08T12:14:40.424Z,372.00
2018-09-08T12:15:40.420Z,244.00
2018-09-08T12:16:40.412Z,112.00
2018-09-08T12:17:40.387Z,112.00
2018-09-08T12:18:40.384Z,112.00
2018-09-08T12:19:40.377Z,108.00
2018-09-08T12:20:40.397Z,112.00
2018-09-08T12:21:40.416Z,332.00
2018-09-08T12:22:40.350Z,360.00
2018-09-08T12:23:40.333Z,348.00
2018-09-08T12:24:40.324Z,304.00
2018-09-08T12:25:40.304Z,300.00
2018-09-08T12:26:40.291Z,96.00
2018-09-08T12:27:40.281Z,96.00
2018-09-08T12:28:40.294Z,100.00
2018-09-08T12:29:40.281Z,96.00
2018-09-08T12:30:40.326Z,112.00
2018-09-08T12:31:40.240Z,120.00
2018-09-08T12:32:40.225Z,156.00
2018-09-08T12:33:40.214Z,120.00
2018-09-08T12:34:40.260Z,108.00
2018-09-08T12:35:40.197Z,108.00
2018-09-08T12:36:40.181Z,116.00
2018-09-08T12:37:40.179Z,120.00
2018-09-08T12:38:40.189Z,188.00
2018-09-08T12:39:40.203Z,116.00
2018-09-08T12:40:40.143Z,116.00
2018-09-08T12:41:40.126Z,100.00
2018-09-08T12:42:40.130Z,96.00
2018-09-08T12:43:40.106Z,96.00
2018-09-08T12:44:40.107Z,100.00
2018-09-08T12:45:40.086Z,104.00
2018-09-08T12:46:40.074Z,104.00
2018-09-08T12:47:40.069Z,108.00
2018-09-08T12:48:40.056Z,108.00
2018-09-08T12:49:40.093Z,128.00
2018-09-08T12:50:40.044Z,156.00